Relevés horaires St-Hubert (Belgique)


Relevés horaires à St-Hubert - Dimanche 22 Juill. 2018
Heure UTC1 Température [°C] Vent [km/h] Hum. [%] Pres.4 [hPa] Visi. [Km] Nébu. [octa] Préc.5 [mm] Cond.
2m. Res. Ros. Dir.2 Vit. Moy. Raf.3
23:00 17.8 17.8 11.3 NNO 0.0 0.0 0.0 66 1017.7(1.2/3h) 40 0/8 -- --
22:00 18.5 18.5 11.2 NNO 0.0 0.0 0.0 62 1017.3(1.4/3h) 35 0/8 -- --
21:00 18.7 18.7 8.9 NNO 0.0 0.0 0.0 53 1016.8(1.3/3h) 45 0/8 -- --
20:00 20.3 20.3 8.5 NNO 0.0 0.0 0.0 47 1015.9(0.9/3h) 40 0/8 -- --
19:00 21.9 21.9 8.3 NNO 0.0 0.0 0.0 42 1015.1(0.3/3h) 40 0/8 -- --
18:00 23.1 23.1 8.1 NNO 0.0 0.0 0.0 38 1014.5(0.1/3h) 40 0/8 0/12h
--
17:00 23.6 23.6 7.7 NNO 0.0 0.0 0.0 36 1014.3(-0.3/3h) 30 0/8 -- --
16:00 23.5 23.5 7.2 NNO 0.0 0.0 0.0 35 1014.5(0.0/3h) 35 0/8 -- --
15:00 23.8 23.8 6.0 NNO 0.0 0.0 0.0 32 1014.3(-0.4/3h) 40 0/8 -- --
14:00 24.1 24.1 5.5 NNO 0.0 0.0 0.0 30 1014.5(-0.4/3h) 30 0/8 -- --
13:00 23.5 23.5 6.5 NNO 0.0 0.0 0.0 33 1014.5(-0.4/3h) 29 0/8 -- --
12:00 22.3 22.3 7.4 NNO 0.0 0.0 0.0 38 1015(0.0/3h) 30 0/8 0/6h
--
11:00 21.4 21.4 10.1 NNO 0.0 0.0 0.0 49 1015.4(0.4/3h) 30 0/8 -- --
10:00 20.2 20.2 8.6 NNO 0.0 0.0 0.0 47 1015.7(0.6/3h) 35 0/8 -- --
09:00 19.2 19.2 8.6 NNO 0.0 0.0 0.0 50 1015.6(0.8/3h) 30 0/8 -- --
08:00 17.8 17.8 9.5 NNO 0.0 0.0 0.0 58 1015.8(1.0/3h) 29 0/8 -- --
07:00 16.0 16.0 9.3 NNO 0.0 0.0 0.0 64 1016(0.9/3h) 29 0/8 -- --
06:00 14.7 14.7 8.7 NNO 0.0 0.0 0.0 67 1015.8(0.7/3h) 35 0/8 0/12h
--
05:00 14.2 14.2 9.9 NNO 0.0 0.0 0.0 75 1015.5(0.4/3h) 21 0/8 -- --
04:00 14.0 14.0 10.3 NNO 0.0 0.0 0.0 78 1015.5(0.2/3h) 17 0/8 -- --
03:00 14.5 14.5 9.3 NNO 0.0 0.0 0.0 71 1015.1(0.1/3h) 30 0/8 -- --
02:00 14.4 14.4 10.4 NNO 0.0 0.0 0.0 77 1015.1(0.0/3h) 24 0/8 -- --
01:00 13.5 13.5 11.2 NNO 0.0 0.0 0.0 86 1015.3(0.2/3h) 17 0/8 -- --
00:00 14.5 14.5 12.0 NNO 0.0 0.0 0.0 85 1015.1(0.4/3h) 14 0/8 0/6h
0/24h
--

1 Coordinated Universal Time. Actuellement il est 20:00 locale et 18:00 UTC.

2 Le vent souffle depuis la direction indiquée vers la direction oposée.

3 Les rafales max. sont disponible 40 min après l'heure du relevé.

4 Pour les stations d'altitude (plus de 600m) le géopotentiel du niveau le plus proche de la pression obligatoire est indiqué.

5 Les stations disposant d'un diffuseur peuvent indiquer "trace". Cela signifie que des précipitations ont touchés le sol mais que la quantité est inférieure à 0.1 mm.

Récapitulatif de la journée
Température [°C] Vent [km/h] Ensoleillement4 [h] Precipitations totale5 [mm] Pression [Hpa]
Min1 Max.2 Moy.3 Max. Min Max.
13.1 24.8 0 0.0 0 h 0 min 0 1014.3 1017.7

1 Température minimale relevée entre 18:00 UTC la veille et 18:00 UTC le jour donné.

2 Température maximale relevée entre 06:00 UTC le jour donné et 06:00 UTC le lendemain.

3 Vent moyen de la journée basé sur les relevés horaires.

4 Ensoleillement en heures relevé entre 06:00 UTC la veille et 06:00 UTC le jour donné.

5 Précipitations totales tombées entre 06:00 UTC la jour donné et 06:00 UTC le lendemain.

Graphiques horaires